sensor_id;sensor_type;location;lat;lon;timestamp;P1;durP1;ratioP1;P2;durP2;ratioP2
53718;SDS011;39616;48.872;9.390;2022-08-24T00:02:08;2.60;;;2.00;;
53718;SDS011;39616;48.872;9.390;2022-08-24T00:04:39;2.47;;;1.90;;
53718;SDS011;39616;48.872;9.390;2022-08-24T00:07:09;6.25;;;2.22;;
53718;SDS011;39616;48.872;9.390;2022-08-24T00:09:40;2.00;;;1.60;;
53718;SDS011;39616;48.872;9.390;2022-08-24T00:12:11;1.85;;;1.50;;
53718;SDS011;39616;48.872;9.390;2022-08-24T00:14:42;3.53;;;1.65;;
53718;SDS011;39616;48.872;9.390;2022-08-24T00:17:13;3.47;;;1.50;;
53718;SDS011;39616;48.872;9.390;2022-08-24T00:19:43;5.93;;;1.70;;
53718;SDS011;39616;48.872;9.390;2022-08-24T00:22:14;2.33;;;1.60;;
53718;SDS011;39616;48.872;9.390;2022-08-24T00:24:44;2.60;;;1.40;;
53718;SDS011;39616;48.872;9.390;2022-08-24T00:27:14;2.95;;;1.50;;
53718;SDS011;39616;48.872;9.390;2022-08-24T00:29:45;2.95;;;1.40;;
53718;SDS011;39616;48.872;9.390;2022-08-24T00:32:15;2.05;;;1.35;;
53718;SDS011;39616;48.872;9.390;2022-08-24T00:34:45;2.22;;;1.50;;
53718;SDS011;39616;48.872;9.390;2022-08-24T00:37:16;3.95;;;1.55;;
53718;SDS011;39616;48.872;9.390;2022-08-24T00:39:46;3.08;;;1.60;;
53718;SDS011;39616;48.872;9.390;2022-08-24T00:42:16;2.20;;;1.35;;
53718;SDS011;39616;48.872;9.390;2022-08-24T00:44:47;2.78;;;1.58;;
53718;SDS011;39616;48.872;9.390;2022-08-24T00:47:25;2.47;;;1.58;;
53718;SDS011;39616;48.872;9.390;2022-08-24T00:50:05;2.00;;;1.55;;
53718;SDS011;39616;48.872;9.390;2022-08-24T00:52:44;2.55;;;1.45;;
53718;SDS011;39616;48.872;9.390;2022-08-24T00:55:20;3.17;;;1.58;;
53718;SDS011;39616;48.872;9.390;2022-08-24T00:57:56;3.80;;;1.40;;
53718;SDS011;39616;48.872;9.390;2022-08-24T01:00:32;3.08;;;1.63;;
53718;SDS011;39616;48.872;9.390;2022-08-24T01:03:08;3.05;;;1.70;;
53718;SDS011;39616;48.872;9.390;2022-08-24T01:05:39;2.97;;;1.92;;
53718;SDS011;39616;48.872;9.390;2022-08-24T01:08:10;1.83;;;1.55;;
53718;SDS011;39616;48.872;9.390;2022-08-24T01:10:44;1.50;;;1.40;;
53718;SDS011;39616;48.872;9.390;2022-08-24T01:13:19;2.63;;;1.35;;
53718;SDS011;39616;48.872;9.390;2022-08-24T01:15:51;2.42;;;1.60;;
53718;SDS011;39616;48.872;9.390;2022-08-24T01:18:24;3.50;;;1.55;;
53718;SDS011;39616;48.872;9.390;2022-08-24T01:23:53;2.47;;;1.70;;
53718;SDS011;39616;48.872;9.390;2022-08-24T01:26:31;2.65;;;1.67;;
53718;SDS011;39616;48.872;9.390;2022-08-24T01:29:08;2.35;;;1.23;;
53718;SDS011;39616;48.872;9.390;2022-08-24T01:31:41;3.88;;;1.25;;
53718;SDS011;39616;48.872;9.390;2022-08-24T01:34:15;2.78;;;1.25;;
53718;SDS011;39616;48.872;9.390;2022-08-24T01:36:46;6.50;;;1.77;;
53718;SDS011;39616;48.872;9.390;2022-08-24T01:39:20;2.42;;;1.50;;
53718;SDS011;39616;48.872;9.390;2022-08-24T01:41:54;1.70;;;1.38;;
53718;SDS011;39616;48.872;9.390;2022-08-24T01:44:26;1.90;;;1.77;;
53718;SDS011;39616;48.872;9.390;2022-08-24T01:46:59;2.80;;;1.30;;
53718;SDS011;39616;48.872;9.390;2022-08-24T01:49:31;2.85;;;1.80;;
53718;SDS011;39616;48.872;9.390;2022-08-24T01:52:04;2.03;;;1.60;;
53718;SDS011;39616;48.872;9.390;2022-08-24T01:54:36;2.08;;;1.80;;
53718;SDS011;39616;48.872;9.390;2022-08-24T01:57:07;3.25;;;1.80;;
53718;SDS011;39616;48.872;9.390;2022-08-24T01:59:39;2.00;;;1.70;;
53718;SDS011;39616;48.872;9.390;2022-08-24T02:02:15;1.90;;;1.52;;
53718;SDS011;39616;48.872;9.390;2022-08-24T02:04:48;1.73;;;1.17;;
53718;SDS011;39616;48.872;9.390;2022-08-24T02:07:19;3.13;;;1.80;;
53718;SDS011;39616;48.872;9.390;2022-08-24T02:09:49;1.90;;;1.67;;
53718;SDS011;39616;48.872;9.390;2022-08-24T02:12:20;3.45;;;1.80;;
53718;SDS011;39616;48.872;9.390;2022-08-24T02:14:50;2.53;;;2.10;;
53718;SDS011;39616;48.872;9.390;2022-08-24T02:17:21;1.20;;;1.10;;
53718;SDS011;39616;48.872;9.390;2022-08-24T02:19:51;4.57;;;1.45;;
53718;SDS011;39616;48.872;9.390;2022-08-24T02:22:22;2.42;;;1.40;;
53718;SDS011;39616;48.872;9.390;2022-08-24T02:24:53;2.58;;;1.77;;
53718;SDS011;39616;48.872;9.390;2022-08-24T02:27:23;2.03;;;1.40;;
53718;SDS011;39616;48.872;9.390;2022-08-24T02:29:53;1.98;;;1.75;;
53718;SDS011;39616;48.872;9.390;2022-08-24T02:32:24;2.30;;;1.50;;
53718;SDS011;39616;48.872;9.390;2022-08-24T02:34:54;3.17;;;1.75;;
53718;SDS011;39616;48.872;9.390;2022-08-24T02:37:24;2.53;;;1.83;;
53718;SDS011;39616;48.872;9.390;2022-08-24T02:39:55;4.50;;;1.50;;
53718;SDS011;39616;48.872;9.390;2022-08-24T02:42:25;2.47;;;2.00;;
53718;SDS011;39616;48.872;9.390;2022-08-24T02:44:55;3.25;;;1.50;;
53718;SDS011;39616;48.872;9.390;2022-08-24T02:47:26;2.03;;;1.83;;
53718;SDS011;39616;48.872;9.390;2022-08-24T02:49:56;2.00;;;1.90;;
53718;SDS011;39616;48.872;9.390;2022-08-24T02:52:26;3.10;;;2.20;;
53718;SDS011;39616;48.872;9.390;2022-08-24T02:54:57;2.13;;;1.70;;
53718;SDS011;39616;48.872;9.390;2022-08-24T02:57:27;3.38;;;1.70;;
53718;SDS011;39616;48.872;9.390;2022-08-24T02:59:57;2.55;;;1.75;;
53718;SDS011;39616;48.872;9.390;2022-08-24T03:02:28;2.90;;;1.75;;
53718;SDS011;39616;48.872;9.390;2022-08-24T03:04:59;2.08;;;1.60;;
53718;SDS011;39616;48.872;9.390;2022-08-24T03:07:29;1.70;;;1.60;;
53718;SDS011;39616;48.872;9.390;2022-08-24T03:09:59;3.13;;;1.75;;
53718;SDS011;39616;48.872;9.390;2022-08-24T03:12:30;2.25;;;1.90;;
53718;SDS011;39616;48.872;9.390;2022-08-24T03:15:00;4.18;;;1.70;;
53718;SDS011;39616;48.872;9.390;2022-08-24T03:17:33;1.70;;;1.60;;
53718;SDS011;39616;48.872;9.390;2022-08-24T03:20:05;3.88;;;2.17;;
53718;SDS011;39616;48.872;9.390;2022-08-24T03:22:37;2.17;;;1.73;;
53718;SDS011;39616;48.872;9.390;2022-08-24T03:25:09;3.63;;;2.03;;
53718;SDS011;39616;48.872;9.390;2022-08-24T03:27:40;4.25;;;1.85;;
53718;SDS011;39616;48.872;9.390;2022-08-24T03:30:12;3.42;;;1.70;;
53718;SDS011;39616;48.872;9.390;2022-08-24T03:32:44;2.17;;;1.80;;
53718;SDS011;39616;48.872;9.390;2022-08-24T03:35:15;3.35;;;1.92;;
53718;SDS011;39616;48.872;9.390;2022-08-24T03:37:46;2.42;;;2.20;;
53718;SDS011;39616;48.872;9.390;2022-08-24T03:40:17;2.30;;;2.10;;
53718;SDS011;39616;48.872;9.390;2022-08-24T03:42:49;2.95;;;2.10;;
53718;SDS011;39616;48.872;9.390;2022-08-24T03:45:20;2.13;;;1.92;;
53718;SDS011;39616;48.872;9.390;2022-08-24T03:47:51;2.40;;;2.10;;
53718;SDS011;39616;48.872;9.390;2022-08-24T03:50:22;3.65;;;2.05;;
53718;SDS011;39616;48.872;9.390;2022-08-24T03:52:53;2.55;;;1.90;;
53718;SDS011;39616;48.872;9.390;2022-08-24T03:55:23;3.10;;;2.38;;
53718;SDS011;39616;48.872;9.390;2022-08-24T03:57:54;2.83;;;1.77;;
53718;SDS011;39616;48.872;9.390;2022-08-24T04:00:24;2.63;;;2.05;;
53718;SDS011;39616;48.872;9.390;2022-08-24T04:02:57;3.63;;;1.83;;
53718;SDS011;39616;48.872;9.390;2022-08-24T04:05:27;2.50;;;2.30;;
53718;SDS011;39616;48.872;9.390;2022-08-24T04:07:57;4.50;;;1.80;;
53718;SDS011;39616;48.872;9.390;2022-08-24T04:10:28;2.85;;;1.55;;
53718;SDS011;39616;48.872;9.390;2022-08-24T04:12:58;1.90;;;1.75;;
53718;SDS011;39616;48.872;9.390;2022-08-24T04:15:30;1.75;;;1.55;;
53718;SDS011;39616;48.872;9.390;2022-08-24T04:18:01;5.13;;;1.80;;
53718;SDS011;39616;48.872;9.390;2022-08-24T04:20:35;8.63;;;1.90;;
53718;SDS011;39616;48.872;9.390;2022-08-24T04:23:08;3.90;;;2.05;;
53718;SDS011;39616;48.872;9.390;2022-08-24T04:25:44;3.40;;;1.80;;
53718;SDS011;39616;48.872;9.390;2022-08-24T04:28:17;4.07;;;2.05;;
53718;SDS011;39616;48.872;9.390;2022-08-24T04:30:49;3.35;;;1.52;;
53718;SDS011;39616;48.872;9.390;2022-08-24T04:33:19;2.63;;;1.60;;
53718;SDS011;39616;48.872;9.390;2022-08-24T04:35:49;2.42;;;1.73;;
53718;SDS011;39616;48.872;9.390;2022-08-24T04:38:20;4.65;;;1.77;;
53718;SDS011;39616;48.872;9.390;2022-08-24T04:40:51;2.78;;;1.80;;
53718;SDS011;39616;48.872;9.390;2022-08-24T04:43:21;4.13;;;1.60;;
53718;SDS011;39616;48.872;9.390;2022-08-24T04:45:52;2.47;;;1.95;;
53718;SDS011;39616;48.872;9.390;2022-08-24T04:48:22;4.60;;;2.38;;
53718;SDS011;39616;48.872;9.390;2022-08-24T04:50:52;2.45;;;2.00;;
53718;SDS011;39616;48.872;9.390;2022-08-24T04:53:23;5.00;;;1.60;;
53718;SDS011;39616;48.872;9.390;2022-08-24T04:55:53;3.10;;;1.58;;
53718;SDS011;39616;48.872;9.390;2022-08-24T04:58:23;2.38;;;1.73;;
53718;SDS011;39616;48.872;9.390;2022-08-24T05:00:55;7.10;;;1.80;;
53718;SDS011;39616;48.872;9.390;2022-08-24T05:03:25;2.70;;;2.13;;
53718;SDS011;39616;48.872;9.390;2022-08-24T05:05:56;1.80;;;1.70;;
53718;SDS011;39616;48.872;9.390;2022-08-24T05:08:26;3.10;;;1.85;;
53718;SDS011;39616;48.872;9.390;2022-08-24T05:10:57;5.25;;;1.92;;
53718;SDS011;39616;48.872;9.390;2022-08-24T05:13:27;2.40;;;2.20;;
53718;SDS011;39616;48.872;9.390;2022-08-24T05:15:57;2.38;;;1.70;;
53718;SDS011;39616;48.872;9.390;2022-08-24T05:18:28;2.53;;;1.98;;
53718;SDS011;39616;48.872;9.390;2022-08-24T05:20:59;4.70;;;2.38;;
53718;SDS011;39616;48.872;9.390;2022-08-24T05:23:29;4.53;;;2.22;;
53718;SDS011;39616;48.872;9.390;2022-08-24T05:26:04;3.88;;;2.00;;
53718;SDS011;39616;48.872;9.390;2022-08-24T05:28:39;2.25;;;2.05;;
53718;SDS011;39616;48.872;9.390;2022-08-24T05:31:11;4.22;;;2.50;;
53718;SDS011;39616;48.872;9.390;2022-08-24T05:33:43;4.93;;;1.98;;
53718;SDS011;39616;48.872;9.390;2022-08-24T05:36:16;3.17;;;1.85;;
53718;SDS011;39616;48.872;9.390;2022-08-24T05:38:52;5.35;;;2.22;;
53718;SDS011;39616;48.872;9.390;2022-08-24T05:41:26;3.00;;;1.97;;
53718;SDS011;39616;48.872;9.390;2022-08-24T05:43:57;5.65;;;1.75;;
53718;SDS011;39616;48.872;9.390;2022-08-24T05:46:28;5.70;;;1.50;;
53718;SDS011;39616;48.872;9.390;2022-08-24T05:49:00;5.38;;;2.00;;
53718;SDS011;39616;48.872;9.390;2022-08-24T05:51:31;5.72;;;1.90;;
53718;SDS011;39616;48.872;9.390;2022-08-24T05:54:02;4.97;;;1.67;;
53718;SDS011;39616;48.872;9.390;2022-08-24T05:56:34;5.38;;;1.98;;
53718;SDS011;39616;48.872;9.390;2022-08-24T05:59:04;5.03;;;1.83;;
53718;SDS011;39616;48.872;9.390;2022-08-24T06:01:35;7.93;;;1.60;;
53718;SDS011;39616;48.872;9.390;2022-08-24T06:04:05;2.75;;;2.15;;
53718;SDS011;39616;48.872;9.390;2022-08-24T06:06:38;5.72;;;1.92;;
53718;SDS011;39616;48.872;9.390;2022-08-24T06:09:09;4.50;;;1.80;;
53718;SDS011;39616;48.872;9.390;2022-08-24T06:11:43;8.38;;;1.95;;
53718;SDS011;39616;48.872;9.390;2022-08-24T06:14:15;2.00;;;1.83;;
53718;SDS011;39616;48.872;9.390;2022-08-24T06:16:47;3.28;;;1.60;;
53718;SDS011;39616;48.872;9.390;2022-08-24T06:19:18;2.42;;;1.50;;
53718;SDS011;39616;48.872;9.390;2022-08-24T06:21:50;2.15;;;1.40;;
53718;SDS011;39616;48.872;9.390;2022-08-24T06:24:23;5.18;;;1.40;;
53718;SDS011;39616;48.872;9.390;2022-08-24T06:27:14;3.28;;;1.85;;
53718;SDS011;39616;48.872;9.390;2022-08-24T06:29:52;2.75;;;1.40;;
53718;SDS011;39616;48.872;9.390;2022-08-24T06:32:25;5.60;;;1.58;;
53718;SDS011;39616;48.872;9.390;2022-08-24T06:34:58;2.85;;;1.25;;
53718;SDS011;39616;48.872;9.390;2022-08-24T06:37:28;6.93;;;1.50;;
53718;SDS011;39616;48.872;9.390;2022-08-24T06:39:59;3.88;;;1.60;;
53718;SDS011;39616;48.872;9.390;2022-08-24T06:42:29;7.10;;;1.50;;
53718;SDS011;39616;48.872;9.390;2022-08-24T06:45:00;6.22;;;1.30;;
53718;SDS011;39616;48.872;9.390;2022-08-24T06:47:32;5.05;;;1.85;;
53718;SDS011;39616;48.872;9.390;2022-08-24T06:50:02;2.45;;;1.50;;
53718;SDS011;39616;48.872;9.390;2022-08-24T06:52:34;3.40;;;1.40;;
53718;SDS011;39616;48.872;9.390;2022-08-24T06:55:05;2.35;;;1.40;;
53718;SDS011;39616;48.872;9.390;2022-08-24T06:57:36;2.60;;;1.30;;
53718;SDS011;39616;48.872;9.390;2022-08-24T07:00:06;2.90;;;1.30;;
53718;SDS011;39616;48.872;9.390;2022-08-24T07:02:39;4.30;;;1.10;;
53718;SDS011;39616;48.872;9.390;2022-08-24T07:05:10;2.60;;;1.20;;
53718;SDS011;39616;48.872;9.390;2022-08-24T07:07:40;1.42;;;1.00;;
53718;SDS011;39616;48.872;9.390;2022-08-24T07:10:10;1.92;;;1.50;;
53718;SDS011;39616;48.872;9.390;2022-08-24T07:12:41;4.10;;;1.17;;
53718;SDS011;39616;48.872;9.390;2022-08-24T07:15:11;3.38;;;1.15;;
53718;SDS011;39616;48.872;9.390;2022-08-24T07:17:42;1.33;;;1.00;;
53718;SDS011;39616;48.872;9.390;2022-08-24T07:20:12;1.95;;;1.10;;
53718;SDS011;39616;48.872;9.390;2022-08-24T07:22:43;1.35;;;0.88;;
53718;SDS011;39616;48.872;9.390;2022-08-24T07:25:13;1.98;;;1.00;;
53718;SDS011;39616;48.872;9.390;2022-08-24T07:27:44;1.60;;;1.00;;
53718;SDS011;39616;48.872;9.390;2022-08-24T07:30:15;1.63;;;0.80;;
53718;SDS011;39616;48.872;9.390;2022-08-24T07:32:46;0.93;;;0.90;;
53718;SDS011;39616;48.872;9.390;2022-08-24T07:35:16;1.35;;;0.90;;
53718;SDS011;39616;48.872;9.390;2022-08-24T07:37:47;1.25;;;1.00;;
53718;SDS011;39616;48.872;9.390;2022-08-24T07:40:18;1.98;;;1.05;;
53718;SDS011;39616;48.872;9.390;2022-08-24T07:42:49;1.20;;;0.80;;
53718;SDS011;39616;48.872;9.390;2022-08-24T07:45:21;3.50;;;1.20;;
53718;SDS011;39616;48.872;9.390;2022-08-24T07:47:54;1.00;;;0.82;;
53718;SDS011;39616;48.872;9.390;2022-08-24T07:50:24;0.77;;;0.77;;
53718;SDS011;39616;48.872;9.390;2022-08-24T07:52:55;1.67;;;0.93;;
53718;SDS011;39616;48.872;9.390;2022-08-24T07:55:25;1.77;;;0.80;;
53718;SDS011;39616;48.872;9.390;2022-08-24T07:57:56;4.00;;;0.90;;
53718;SDS011;39616;48.872;9.390;2022-08-24T08:00:28;3.30;;;0.82;;
53718;SDS011;39616;48.872;9.390;2022-08-24T08:02:58;1.63;;;0.80;;
53718;SDS011;39616;48.872;9.390;2022-08-24T08:05:31;1.27;;;1.00;;
53718;SDS011;39616;48.872;9.390;2022-08-24T08:08:01;1.70;;;1.00;;
53718;SDS011;39616;48.872;9.390;2022-08-24T08:10:32;2.10;;;1.10;;
53718;SDS011;39616;48.872;9.390;2022-08-24T08:13:05;1.00;;;0.90;;
53718;SDS011;39616;48.872;9.390;2022-08-24T08:15:36;1.80;;;1.00;;
53718;SDS011;39616;48.872;9.390;2022-08-24T08:18:06;2.95;;;0.90;;
53718;SDS011;39616;48.872;9.390;2022-08-24T08:20:39;2.83;;;0.90;;
53718;SDS011;39616;48.872;9.390;2022-08-24T08:23:10;3.17;;;1.02;;
53718;SDS011;39616;48.872;9.390;2022-08-24T08:25:59;1.00;;;0.90;;
53718;SDS011;39616;48.872;9.390;2022-08-24T08:28:31;3.33;;;1.08;;
53718;SDS011;39616;48.872;9.390;2022-08-24T08:31:02;2.03;;;1.00;;
53718;SDS011;39616;48.872;9.390;2022-08-24T08:33:37;1.00;;;0.80;;
53718;SDS011;39616;48.872;9.390;2022-08-24T08:36:08;9.50;;;1.20;;
53718;SDS011;39616;48.872;9.390;2022-08-24T08:38:41;2.28;;;1.02;;
53718;SDS011;39616;48.872;9.390;2022-08-24T08:43:56;3.85;;;1.08;;
53718;SDS011;39616;48.872;9.390;2022-08-24T08:55:33;1.20;;;1.00;;
53718;SDS011;39616;48.872;9.390;2022-08-24T09:01:27;1.77;;;0.95;;
53718;SDS011;39616;48.872;9.390;2022-08-24T09:15:07;2.15;;;0.70;;
53718;SDS011;39616;48.872;9.390;2022-08-24T09:23:01;1.58;;;0.60;;
53718;SDS011;39616;48.872;9.390;2022-08-24T09:25:44;0.63;;;0.63;;
53718;SDS011;39616;48.872;9.390;2022-08-24T09:31:36;1.48;;;0.77;;
53718;SDS011;39616;48.872;9.390;2022-08-24T09:34:22;1.10;;;0.68;;
53718;SDS011;39616;48.872;9.390;2022-08-24T09:40:00;2.72;;;0.57;;
53718;SDS011;39616;48.872;9.390;2022-08-24T09:54:37;0.50;;;0.50;;
53718;SDS011;39616;48.872;9.390;2022-08-24T10:00:07;1.88;;;0.70;;
53718;SDS011;39616;48.872;9.390;2022-08-24T10:03:00;1.27;;;0.70;;
53718;SDS011;39616;48.872;9.390;2022-08-24T10:08:18;2.47;;;0.80;;
53718;SDS011;39616;48.872;9.390;2022-08-24T10:11:16;5.32;;;0.70;;
53718;SDS011;39616;48.872;9.390;2022-08-24T10:20:12;0.88;;;0.60;;
53718;SDS011;39616;48.872;9.390;2022-08-24T10:31:08;0.60;;;0.57;;
53718;SDS011;39616;48.872;9.390;2022-08-24T10:42:19;0.90;;;0.60;;
53718;SDS011;39616;48.872;9.390;2022-08-24T10:48:00;1.58;;;0.60;;
53718;SDS011;39616;48.872;9.390;2022-08-24T10:53:26;0.70;;;0.70;;
53718;SDS011;39616;48.872;9.390;2022-08-24T10:56:09;1.02;;;0.50;;
53718;SDS011;39616;48.872;9.390;2022-08-24T11:02:00;0.77;;;0.60;;
53718;SDS011;39616;48.872;9.390;2022-08-24T11:04:55;2.92;;;0.50;;
53718;SDS011;39616;48.872;9.390;2022-08-24T11:07:28;1.33;;;0.60;;
53718;SDS011;39616;48.872;9.390;2022-08-24T11:09:59;0.73;;;0.68;;
53718;SDS011;39616;48.872;9.390;2022-08-24T11:17:55;0.50;;;0.50;;
53718;SDS011;39616;48.872;9.390;2022-08-24T11:23:07;1.73;;;0.60;;
53718;SDS011;39616;48.872;9.390;2022-08-24T11:25:40;0.50;;;0.50;;
53718;SDS011;39616;48.872;9.390;2022-08-24T11:28:32;2.42;;;0.70;;
53718;SDS011;39616;48.872;9.390;2022-08-24T11:31:38;1.55;;;0.60;;
53718;SDS011;39616;48.872;9.390;2022-08-24T11:34:16;0.60;;;0.60;;
53718;SDS011;39616;48.872;9.390;2022-08-24T11:37:03;0.75;;;0.70;;
53718;SDS011;39616;48.872;9.390;2022-08-24T11:39:35;0.55;;;0.55;;
53718;SDS011;39616;48.872;9.390;2022-08-24T11:44:56;3.95;;;0.70;;
53718;SDS011;39616;48.872;9.390;2022-08-24T11:47:57;0.60;;;0.60;;
53718;SDS011;39616;48.872;9.390;2022-08-24T11:59:49;1.05;;;0.68;;
53718;SDS011;39616;48.872;9.390;2022-08-24T12:02:33;1.88;;;0.70;;
53718;SDS011;39616;48.872;9.390;2022-08-24T12:11:05;0.93;;;0.70;;
53718;SDS011;39616;48.872;9.390;2022-08-24T12:21:27;0.70;;;0.70;;
53718;SDS011;39616;48.872;9.390;2022-08-24T12:24:05;3.58;;;0.70;;
53718;SDS011;39616;48.872;9.390;2022-08-24T12:27:00;1.15;;;0.50;;
53718;SDS011;39616;48.872;9.390;2022-08-24T12:29:37;1.38;;;0.60;;
53718;SDS011;39616;48.872;9.390;2022-08-24T12:32:18;0.70;;;0.60;;
53718;SDS011;39616;48.872;9.390;2022-08-24T12:34:58;1.15;;;0.70;;
53718;SDS011;39616;48.872;9.390;2022-08-24T12:40:20;0.93;;;0.60;;
53718;SDS011;39616;48.872;9.390;2022-08-24T12:45:34;0.50;;;0.50;;
53718;SDS011;39616;48.872;9.390;2022-08-24T12:48:13;1.27;;;0.68;;
53718;SDS011;39616;48.872;9.390;2022-08-24T13:01:32;0.70;;;0.70;;
53718;SDS011;39616;48.872;9.390;2022-08-24T13:04:09;0.70;;;0.70;;
53718;SDS011;39616;48.872;9.390;2022-08-24T13:09:43;0.80;;;0.68;;
53718;SDS011;39616;48.872;9.390;2022-08-24T13:33:32;0.70;;;0.70;;
53718;SDS011;39616;48.872;9.390;2022-08-24T13:53:43;1.98;;;0.95;;
53718;SDS011;39616;48.872;9.390;2022-08-24T13:56:25;0.98;;;0.80;;
53718;SDS011;39616;48.872;9.390;2022-08-24T14:07:22;0.75;;;0.75;;
53718;SDS011;39616;48.872;9.390;2022-08-24T14:10:03;1.00;;;0.85;;
53718;SDS011;39616;48.872;9.390;2022-08-24T14:12:48;0.73;;;0.70;;
53718;SDS011;39616;48.872;9.390;2022-08-24T14:23:53;1.23;;;0.73;;
53718;SDS011;39616;48.872;9.390;2022-08-24T14:34:41;1.13;;;0.88;;
53718;SDS011;39616;48.872;9.390;2022-08-24T14:37:35;3.70;;;0.85;;
53718;SDS011;39616;48.872;9.390;2022-08-24T14:40:11;0.70;;;0.70;;
53718;SDS011;39616;48.872;9.390;2022-08-24T14:43:01;1.17;;;0.70;;
53718;SDS011;39616;48.872;9.390;2022-08-24T15:00:23;2.55;;;0.70;;
53718;SDS011;39616;48.872;9.390;2022-08-24T15:03:07;1.48;;;0.80;;
53718;SDS011;39616;48.872;9.390;2022-08-24T15:09:09;0.73;;;0.73;;
53718;SDS011;39616;48.872;9.390;2022-08-24T15:11:53;1.92;;;0.80;;
53718;SDS011;39616;48.872;9.390;2022-08-24T15:14:40;0.70;;;0.70;;
53718;SDS011;39616;48.872;9.390;2022-08-24T15:17:22;0.80;;;0.80;;
53718;SDS011;39616;48.872;9.390;2022-08-24T15:20:02;1.60;;;0.80;;
53718;SDS011;39616;48.872;9.390;2022-08-24T15:22:44;2.40;;;1.08;;
53718;SDS011;39616;48.872;9.390;2022-08-24T15:28:12;2.70;;;0.90;;
53718;SDS011;39616;48.872;9.390;2022-08-24T15:31:07;2.78;;;0.80;;
53718;SDS011;39616;48.872;9.390;2022-08-24T15:33:56;1.65;;;0.82;;
53718;SDS011;39616;48.872;9.390;2022-08-24T15:36:28;4.32;;;0.80;;
53718;SDS011;39616;48.872;9.390;2022-08-24T15:39:03;0.93;;;0.90;;
53718;SDS011;39616;48.872;9.390;2022-08-24T15:41:37;1.77;;;0.88;;
53718;SDS011;39616;48.872;9.390;2022-08-24T15:44:15;0.70;;;0.68;;
53718;SDS011;39616;48.872;9.390;2022-08-24T15:47:02;1.23;;;0.70;;
53718;SDS011;39616;48.872;9.390;2022-08-24T15:49:49;1.92;;;0.80;;
53718;SDS011;39616;48.872;9.390;2022-08-24T15:52:41;0.95;;;0.70;;
53718;SDS011;39616;48.872;9.390;2022-08-24T15:55:25;0.75;;;0.75;;
53718;SDS011;39616;48.872;9.390;2022-08-24T16:04:10;1.17;;;0.85;;
53718;SDS011;39616;48.872;9.390;2022-08-24T16:06:45;1.35;;;0.80;;
53718;SDS011;39616;48.872;9.390;2022-08-24T16:11:48;2.65;;;1.05;;
53718;SDS011;39616;48.872;9.390;2022-08-24T16:16:57;1.15;;;1.00;;
53718;SDS011;39616;48.872;9.390;2022-08-24T16:19:31;2.83;;;1.00;;
53718;SDS011;39616;48.872;9.390;2022-08-24T16:22:07;1.13;;;0.80;;
53718;SDS011;39616;48.872;9.390;2022-08-24T16:24:40;0.63;;;0.63;;
53718;SDS011;39616;48.872;9.390;2022-08-24T16:27:13;1.70;;;0.80;;
53718;SDS011;39616;48.872;9.390;2022-08-24T16:29:47;1.13;;;0.60;;
53718;SDS011;39616;48.872;9.390;2022-08-24T16:32:22;1.40;;;0.73;;
53718;SDS011;39616;48.872;9.390;2022-08-24T16:34:54;1.00;;;0.80;;
53718;SDS011;39616;48.872;9.390;2022-08-24T16:37:43;1.17;;;0.68;;
53718;SDS011;39616;48.872;9.390;2022-08-24T16:40:13;2.47;;;0.85;;
53718;SDS011;39616;48.872;9.390;2022-08-24T16:42:44;1.50;;;0.80;;
53718;SDS011;39616;48.872;9.390;2022-08-24T16:45:17;0.88;;;0.63;;
53718;SDS011;39616;48.872;9.390;2022-08-24T16:47:49;1.15;;;0.60;;
53718;SDS011;39616;48.872;9.390;2022-08-24T16:50:19;1.65;;;0.60;;
53718;SDS011;39616;48.872;9.390;2022-08-24T16:52:50;1.17;;;0.60;;
53718;SDS011;39616;48.872;9.390;2022-08-24T16:55:20;2.03;;;0.70;;
53718;SDS011;39616;48.872;9.390;2022-08-24T16:57:51;0.60;;;0.60;;
53718;SDS011;39616;48.872;9.390;2022-08-24T17:00:21;1.40;;;0.75;;
53718;SDS011;39616;48.872;9.390;2022-08-24T17:02:51;0.68;;;0.60;;
53718;SDS011;39616;48.872;9.390;2022-08-24T17:05:22;1.58;;;0.60;;
53718;SDS011;39616;48.872;9.390;2022-08-24T17:07:52;1.20;;;0.80;;
53718;SDS011;39616;48.872;9.390;2022-08-24T17:10:23;1.65;;;0.70;;
53718;SDS011;39616;48.872;9.390;2022-08-24T17:12:53;1.40;;;0.80;;
53718;SDS011;39616;48.872;9.390;2022-08-24T17:15:23;2.65;;;0.90;;
53718;SDS011;39616;48.872;9.390;2022-08-24T17:17:58;2.80;;;0.90;;
53718;SDS011;39616;48.872;9.390;2022-08-24T17:20:33;0.95;;;0.77;;
53718;SDS011;39616;48.872;9.390;2022-08-24T17:23:04;3.75;;;0.80;;
53718;SDS011;39616;48.872;9.390;2022-08-24T17:25:35;0.60;;;0.60;;
53718;SDS011;39616;48.872;9.390;2022-08-24T17:28:09;1.48;;;0.80;;
53718;SDS011;39616;48.872;9.390;2022-08-24T17:30:42;0.95;;;0.73;;
53718;SDS011;39616;48.872;9.390;2022-08-24T17:33:12;1.08;;;0.70;;
53718;SDS011;39616;48.872;9.390;2022-08-24T17:35:43;1.83;;;1.00;;
53718;SDS011;39616;48.872;9.390;2022-08-24T17:38:13;1.00;;;0.90;;
53718;SDS011;39616;48.872;9.390;2022-08-24T17:40:43;2.70;;;0.80;;
53718;SDS011;39616;48.872;9.390;2022-08-24T17:43:14;1.05;;;0.80;;
53718;SDS011;39616;48.872;9.390;2022-08-24T17:45:45;1.30;;;0.68;;
53718;SDS011;39616;48.872;9.390;2022-08-24T17:48:16;1.70;;;0.70;;
53718;SDS011;39616;48.872;9.390;2022-08-24T17:50:54;2.97;;;0.80;;
53718;SDS011;39616;48.872;9.390;2022-08-24T17:53:24;3.65;;;0.90;;
53718;SDS011;39616;48.872;9.390;2022-08-24T17:55:54;1.77;;;1.15;;
53718;SDS011;39616;48.872;9.390;2022-08-24T17:58:25;4.35;;;0.80;;
53718;SDS011;39616;48.872;9.390;2022-08-24T18:00:55;0.80;;;0.80;;
53718;SDS011;39616;48.872;9.390;2022-08-24T18:03:25;3.63;;;1.00;;
53718;SDS011;39616;48.872;9.390;2022-08-24T18:05:56;3.38;;;0.90;;
53718;SDS011;39616;48.872;9.390;2022-08-24T18:08:26;3.45;;;0.70;;
53718;SDS011;39616;48.872;9.390;2022-08-24T18:10:57;1.00;;;0.70;;
53718;SDS011;39616;48.872;9.390;2022-08-24T18:13:27;0.82;;;0.70;;
53718;SDS011;39616;48.872;9.390;2022-08-24T18:15:58;1.10;;;1.00;;
53718;SDS011;39616;48.872;9.390;2022-08-24T18:18:28;1.20;;;0.90;;
53718;SDS011;39616;48.872;9.390;2022-08-24T18:20:59;2.15;;;0.90;;
53718;SDS011;39616;48.872;9.390;2022-08-24T18:23:29;3.00;;;0.63;;
53718;SDS011;39616;48.872;9.390;2022-08-24T18:26:00;1.20;;;0.75;;
53718;SDS011;39616;48.872;9.390;2022-08-24T18:28:30;4.40;;;0.90;;
53718;SDS011;39616;48.872;9.390;2022-08-24T18:31:01;1.52;;;0.80;;
53718;SDS011;39616;48.872;9.390;2022-08-24T18:33:31;2.15;;;0.73;;
53718;SDS011;39616;48.872;9.390;2022-08-24T18:36:02;1.15;;;0.80;;
53718;SDS011;39616;48.872;9.390;2022-08-24T18:38:32;1.35;;;1.00;;
53718;SDS011;39616;48.872;9.390;2022-08-24T18:41:03;1.00;;;0.90;;
53718;SDS011;39616;48.872;9.390;2022-08-24T18:43:33;0.95;;;0.90;;
53718;SDS011;39616;48.872;9.390;2022-08-24T18:46:04;1.80;;;0.98;;
53718;SDS011;39616;48.872;9.390;2022-08-24T18:48:35;2.92;;;1.00;;
53718;SDS011;39616;48.872;9.390;2022-08-24T18:51:05;2.55;;;1.10;;
53718;SDS011;39616;48.872;9.390;2022-08-24T18:53:35;1.20;;;0.80;;
53718;SDS011;39616;48.872;9.390;2022-08-24T18:56:06;2.25;;;0.82;;
53718;SDS011;39616;48.872;9.390;2022-08-24T18:58:38;2.17;;;0.90;;
53718;SDS011;39616;48.872;9.390;2022-08-24T19:01:09;1.20;;;0.88;;
53718;SDS011;39616;48.872;9.390;2022-08-24T19:03:40;1.73;;;0.90;;
53718;SDS011;39616;48.872;9.390;2022-08-24T19:06:11;0.80;;;0.80;;
53718;SDS011;39616;48.872;9.390;2022-08-24T19:08:41;1.98;;;0.80;;
53718;SDS011;39616;48.872;9.390;2022-08-24T19:11:12;2.28;;;1.00;;
53718;SDS011;39616;48.872;9.390;2022-08-24T19:13:43;4.85;;;1.10;;
53718;SDS011;39616;48.872;9.390;2022-08-24T19:16:13;2.85;;;1.13;;
53718;SDS011;39616;48.872;9.390;2022-08-24T19:18:44;1.75;;;1.10;;
53718;SDS011;39616;48.872;9.390;2022-08-24T19:21:18;1.65;;;1.15;;
53718;SDS011;39616;48.872;9.390;2022-08-24T19:23:48;2.38;;;1.00;;
53718;SDS011;39616;48.872;9.390;2022-08-24T19:26:18;1.38;;;0.93;;